Terminal Aerodrome Forecast
Issued by NWS

Home | Current Version | Previous Version | Text Only | Print | Product List | Glossary Off
Versions: 1 2 3 4 5 6 7 8 9 10 11 12 13 14 15 16 17

000
FTUS43 KGRB 081136
TAFATW
TAF
KATW 081136Z 0812/0912 27013G20KT P6SM -SHSN BKN025 OVC035
      TEMPO 0812/0816 2SM -SHSN
     FM081600 29014G21KT P6SM BKN028 OVC035
      TEMPO 0816/0820 2SM -SHSN BKN025
     FM082100 30012G20KT P6SM -SHSN OVC035
     FM082300 30009KT P6SM BKN045=

USA.gov is the U.S. government's official web portal to all federal, state and local government web resources and services.